Juiz De Fora, Juiz de Fora Airport (SBJF)

NameJuiz de Fora Airport
CityJuiz De Fora
CountryBrazil
ICAOSBJF
IATAJDF
Altitude911 m
CoordinatesGoogle Map
Live Air TrafficLiveATC.net
METARSBJF 171100Z 36005KT 9999 BKN040 15/14 Q1026
2017-07-17 11:00:00 Wind: North (360°) 2.57 m/s - Visibility: > 10000 m - Temperature: 15 °C - Dew point: 14 °C - Humidity: 93.8% - Pressure: 1026 hPa
Statistics

The table below shows the detailed information of all flights to/from Juiz De Fora, Juiz de Fora Airport (SBJF).